sensor_id;sensor_type;location;lat;lon;timestamp;pressure;altitude;pressure_sealevel;temperature;humidity
50268;BME280;36153;50.960;6.220;2022-11-15T00:00:44;99904.38;;;13.31;57.73
50268;BME280;36153;50.960;6.220;2022-11-15T00:03:45;99916.44;;;13.51;57.68
50268;BME280;36153;50.960;6.220;2022-11-15T00:06:46;99907.59;;;13.61;57.38
50268;BME280;36153;50.960;6.220;2022-11-15T00:09:46;99906.53;;;13.77;57.70
50268;BME280;36153;50.960;6.220;2022-11-15T00:12:47;99900.31;;;13.89;58.16
50268;BME280;36153;50.960;6.220;2022-11-15T00:15:47;99894.19;;;13.90;57.99
50268;BME280;36153;50.960;6.220;2022-11-15T00:18:48;99899.28;;;14.01;58.12
50268;BME280;36153;50.960;6.220;2022-11-15T00:21:48;99896.53;;;14.13;58.09
50268;BME280;36153;50.960;6.220;2022-11-15T00:24:49;99903.53;;;14.11;58.22
50268;BME280;36153;50.960;6.220;2022-11-15T00:27:49;99903.41;;;14.21;58.75
50268;BME280;36153;50.960;6.220;2022-11-15T00:30:51;99900.53;;;14.41;59.01
50268;BME280;36153;50.960;6.220;2022-11-15T00:33:52;99904.78;;;14.49;59.54
50268;BME280;36153;50.960;6.220;2022-11-15T00:36:52;99896.78;;;14.59;59.56
50268;BME280;36153;50.960;6.220;2022-11-15T00:39:53;99895.25;;;15.01;60.33
50268;BME280;36153;50.960;6.220;2022-11-15T00:42:53;99885.47;;;15.14;59.54
50268;BME280;36153;50.960;6.220;2022-11-15T00:45:54;99895.81;;;15.21;59.94
50268;BME280;36153;50.960;6.220;2022-11-15T00:48:55;99883.38;;;15.32;59.88
50268;BME280;36153;50.960;6.220;2022-11-15T00:51:55;99885.72;;;15.47;59.66
50268;BME280;36153;50.960;6.220;2022-11-15T00:54:57;99884.13;;;15.40;59.70
50268;BME280;36153;50.960;6.220;2022-11-15T00:57:57;99889.16;;;15.51;59.83
50268;BME280;36153;50.960;6.220;2022-11-15T01:01:12;99889.13;;;15.52;59.60
50268;BME280;36153;50.960;6.220;2022-11-15T01:04:13;99877.19;;;15.36;59.77
50268;BME280;36153;50.960;6.220;2022-11-15T01:07:14;99877.38;;;15.27;59.90
50268;BME280;36153;50.960;6.220;2022-11-15T01:10:14;99885.25;;;15.27;60.13
50268;BME280;36153;50.960;6.220;2022-11-15T01:13:14;99877.34;;;15.28;59.94
50268;BME280;36153;50.960;6.220;2022-11-15T01:16:17;99877.34;;;15.28;60.14
50268;BME280;36153;50.960;6.220;2022-11-15T01:19:18;99879.19;;;15.23;60.42
50268;BME280;36153;50.960;6.220;2022-11-15T01:22:19;99884.31;;;15.29;60.49
50268;BME280;36153;50.960;6.220;2022-11-15T01:25:19;99886.91;;;15.32;60.57
50268;BME280;36153;50.960;6.220;2022-11-15T01:28:19;99884.16;;;15.39;60.38
50268;BME280;36153;50.960;6.220;2022-11-15T01:31:20;99879.94;;;15.30;60.50
50268;BME280;36153;50.960;6.220;2022-11-15T01:34:21;99887.28;;;15.09;60.04
50268;BME280;36153;50.960;6.220;2022-11-15T01:37:21;99879.59;;;14.98;59.91
50268;BME280;36153;50.960;6.220;2022-11-15T01:40:22;99880.69;;;14.87;60.07
50268;BME280;36153;50.960;6.220;2022-11-15T01:43:28;99872.81;;;14.87;60.35
50268;BME280;36153;50.960;6.220;2022-11-15T01:46:35;99867.66;;;14.80;61.01
50268;BME280;36153;50.960;6.220;2022-11-15T01:49:39;99862.06;;;15.02;60.90
50268;BME280;36153;50.960;6.220;2022-11-15T01:52:42;99855.78;;;15.12;60.88
50268;BME280;36153;50.960;6.220;2022-11-15T01:55:42;99857.09;;;15.35;60.48
50268;BME280;36153;50.960;6.220;2022-11-15T01:58:43;99849.97;;;15.43;60.28
50268;BME280;36153;50.960;6.220;2022-11-15T02:01:45;99851.72;;;15.43;60.20
50268;BME280;36153;50.960;6.220;2022-11-15T02:04:47;99844.69;;;15.46;60.15
50268;BME280;36153;50.960;6.220;2022-11-15T02:07:47;99849.00;;;15.47;60.16
50268;BME280;36153;50.960;6.220;2022-11-15T02:10:48;99851.69;;;15.44;60.25
50268;BME280;36153;50.960;6.220;2022-11-15T02:13:49;99846.38;;;15.47;60.42
50268;BME280;36153;50.960;6.220;2022-11-15T02:17:32;99840.16;;;15.55;60.25
50268;BME280;36153;50.960;6.220;2022-11-15T02:20:41;99843.38;;;15.67;59.92
50268;BME280;36153;50.960;6.220;2022-11-15T02:30:35;99838.78;;;15.80;59.79
50268;BME280;36153;50.960;6.220;2022-11-15T02:37:10;99844.97;;;15.75;59.66
50268;BME280;36153;50.960;6.220;2022-11-15T02:43:33;99843.75;;;15.94;59.39
50268;BME280;36153;50.960;6.220;2022-11-15T02:46:58;99844.81;;;15.85;59.15
50268;BME280;36153;50.960;6.220;2022-11-15T02:50:18;99833.56;;;15.77;59.31
50268;BME280;36153;50.960;6.220;2022-11-15T02:53:24;99832.66;;;15.81;59.42
50268;BME280;36153;50.960;6.220;2022-11-15T02:56:25;99833.41;;;15.85;59.51
50268;BME280;36153;50.960;6.220;2022-11-15T03:06:42;99826.09;;;16.01;59.21
50268;BME280;36153;50.960;6.220;2022-11-15T03:09:49;99815.56;;;16.02;59.11
50268;BME280;36153;50.960;6.220;2022-11-15T03:12:56;99816.50;;;16.00;58.91
50268;BME280;36153;50.960;6.220;2022-11-15T03:16:05;99811.66;;;16.20;59.03
50268;BME280;36153;50.960;6.220;2022-11-15T03:19:31;99813.72;;;16.45;58.27
50268;BME280;36153;50.960;6.220;2022-11-15T03:22:37;99810.72;;;16.61;58.02
50268;BME280;36153;50.960;6.220;2022-11-15T03:25:45;99809.50;;;16.38;58.15
50268;BME280;36153;50.960;6.220;2022-11-15T03:28:51;99801.78;;;16.32;58.26
50268;BME280;36153;50.960;6.220;2022-11-15T03:31:59;99809.50;;;16.38;59.27
50268;BME280;36153;50.960;6.220;2022-11-15T03:41:29;99803.81;;;16.57;58.56
50268;BME280;36153;50.960;6.220;2022-11-15T03:47:41;99801.06;;;16.61;58.42
50268;BME280;36153;50.960;6.220;2022-11-15T03:50:43;99797.56;;;16.62;58.29
50268;BME280;36153;50.960;6.220;2022-11-15T03:53:45;99795.59;;;16.70;58.61
50268;BME280;36153;50.960;6.220;2022-11-15T03:56:46;99796.63;;;16.65;58.44
50268;BME280;36153;50.960;6.220;2022-11-15T03:59:47;99788.59;;;16.69;58.46
50268;BME280;36153;50.960;6.220;2022-11-15T04:02:48;99794.03;;;16.63;58.28
50268;BME280;36153;50.960;6.220;2022-11-15T04:05:48;99784.38;;;16.64;58.33
50268;BME280;36153;50.960;6.220;2022-11-15T04:08:49;99788.78;;;16.62;58.50
50268;BME280;36153;50.960;6.220;2022-11-15T04:11:49;99792.66;;;16.47;58.54
50268;BME280;36153;50.960;6.220;2022-11-15T04:14:50;99795.47;;;16.39;58.93
50268;BME280;36153;50.960;6.220;2022-11-15T04:18:07;99785.97;;;16.33;58.78
50268;BME280;36153;50.960;6.220;2022-11-15T04:21:08;99789.63;;;16.28;59.43
50268;BME280;36153;50.960;6.220;2022-11-15T04:24:29;99790.81;;;16.50;58.77
50268;BME280;36153;50.960;6.220;2022-11-15T04:27:30;99792.75;;;16.42;59.22
50268;BME280;36153;50.960;6.220;2022-11-15T04:30:30;99797.03;;;16.46;59.20
50268;BME280;36153;50.960;6.220;2022-11-15T04:33:32;99791.41;;;16.62;58.99
50268;BME280;36153;50.960;6.220;2022-11-15T04:36:34;99795.09;;;16.54;59.20
50268;BME280;36153;50.960;6.220;2022-11-15T04:39:54;99796.78;;;16.57;59.19
50268;BME280;36153;50.960;6.220;2022-11-15T04:42:55;99795.59;;;16.70;58.82
50268;BME280;36153;50.960;6.220;2022-11-15T04:45:56;99803.34;;;16.75;58.63
50268;BME280;36153;50.960;6.220;2022-11-15T04:48:56;99802.47;;;16.76;58.31
50268;BME280;36153;50.960;6.220;2022-11-15T04:51:57;99808.69;;;16.72;58.55
50268;BME280;36153;50.960;6.220;2022-11-15T04:54:58;99797.69;;;16.56;58.68
50268;BME280;36153;50.960;6.220;2022-11-15T04:58:00;99807.25;;;16.59;58.86
50268;BME280;36153;50.960;6.220;2022-11-15T05:01:12;99805.13;;;16.38;59.09
50268;BME280;36153;50.960;6.220;2022-11-15T05:04:15;99804.75;;;16.54;59.39
50268;BME280;36153;50.960;6.220;2022-11-15T05:07:21;99802.53;;;16.37;59.02
50268;BME280;36153;50.960;6.220;2022-11-15T05:10:23;99797.50;;;16.64;59.15
50268;BME280;36153;50.960;6.220;2022-11-15T05:13:25;99790.25;;;16.73;58.40
50268;BME280;36153;50.960;6.220;2022-11-15T05:16:27;99784.28;;;16.67;58.55
50268;BME280;36153;50.960;6.220;2022-11-15T05:20:00;99787.50;;;16.78;58.34
50268;BME280;36153;50.960;6.220;2022-11-15T05:23:01;99784.44;;;16.97;58.28
50268;BME280;36153;50.960;6.220;2022-11-15T05:26:10;99778.25;;;16.98;57.77
50268;BME280;36153;50.960;6.220;2022-11-15T05:29:12;99775.94;;;16.85;57.58
50268;BME280;36153;50.960;6.220;2022-11-15T05:32:31;99775.91;;;16.52;57.62
50268;BME280;36153;50.960;6.220;2022-11-15T05:35:42;99770.78;;;16.46;58.05
50268;BME280;36153;50.960;6.220;2022-11-15T05:38:48;99771.63;;;16.48;58.19
50268;BME280;36153;50.960;6.220;2022-11-15T05:41:54;99768.19;;;16.45;58.17
50268;BME280;36153;50.960;6.220;2022-11-15T05:44:58;99761.97;;;16.49;58.08
50268;BME280;36153;50.960;6.220;2022-11-15T05:48:06;99772.81;;;16.35;58.25
50268;BME280;36153;50.960;6.220;2022-11-15T05:51:16;99765.91;;;16.31;57.97
50268;BME280;36153;50.960;6.220;2022-11-15T05:54:24;99781.00;;;16.21;58.16
50268;BME280;36153;50.960;6.220;2022-11-15T05:57:29;99779.25;;;16.21;58.15
50268;BME280;36153;50.960;6.220;2022-11-15T06:00:29;99783.59;;;16.23;57.71
50268;BME280;36153;50.960;6.220;2022-11-15T06:03:30;99793.59;;;16.44;56.85
50268;BME280;36153;50.960;6.220;2022-11-15T06:06:31;99795.38;;;16.44;57.38
50268;BME280;36153;50.960;6.220;2022-11-15T06:09:32;99789.97;;;16.50;56.64
50268;BME280;36153;50.960;6.220;2022-11-15T06:12:33;99796.03;;;16.53;56.56
50268;BME280;36153;50.960;6.220;2022-11-15T06:15:33;99803.81;;;16.57;56.52
50268;BME280;36153;50.960;6.220;2022-11-15T06:18:35;99799.16;;;16.68;55.89
50268;BME280;36153;50.960;6.220;2022-11-15T06:21:37;99810.72;;;16.61;55.85
50268;BME280;36153;50.960;6.220;2022-11-15T06:24:38;99815.97;;;16.61;56.76
50268;BME280;36153;50.960;6.220;2022-11-15T06:27:39;99815.63;;;16.38;57.28
50268;BME280;36153;50.960;6.220;2022-11-15T06:30:40;99824.78;;;16.20;58.50
50268;BME280;36153;50.960;6.220;2022-11-15T06:33:40;99838.97;;;16.13;59.39
50268;BME280;36153;50.960;6.220;2022-11-15T06:36:41;99836.38;;;16.10;59.75
50268;BME280;36153;50.960;6.220;2022-11-15T06:39:41;99840.00;;;16.06;59.75
50268;BME280;36153;50.960;6.220;2022-11-15T06:42:41;99840.00;;;16.06;59.57
50268;BME280;36153;50.960;6.220;2022-11-15T06:45:42;99840.03;;;16.03;59.86
50268;BME280;36153;50.960;6.220;2022-11-15T06:48:42;99845.28;;;16.03;59.70
50268;BME280;36153;50.960;6.220;2022-11-15T06:51:42;99849.09;;;15.90;59.80
50268;BME280;36153;50.960;6.220;2022-11-15T06:54:43;99843.63;;;15.99;59.48
50268;BME280;36153;50.960;6.220;2022-11-15T06:57:54;99845.44;;;15.97;59.28
50268;BME280;36153;50.960;6.220;2022-11-15T07:01:08;99848.94;;;15.96;59.27
50268;BME280;36153;50.960;6.220;2022-11-15T07:04:09;99853.44;;;15.92;59.80
50268;BME280;36153;50.960;6.220;2022-11-15T07:07:17;99840.50;;;15.81;59.51
50268;BME280;36153;50.960;6.220;2022-11-15T07:10:38;99852.66;;;15.87;59.67
50268;BME280;36153;50.960;6.220;2022-11-15T07:13:38;99850.88;;;15.87;59.42
50268;BME280;36153;50.960;6.220;2022-11-15T07:16:43;99862.25;;;15.88;59.74
50268;BME280;36153;50.960;6.220;2022-11-15T07:20:19;99868.00;;;16.06;59.11
50268;BME280;36153;50.960;6.220;2022-11-15T07:23:45;99866.06;;;16.14;58.85
50268;BME280;36153;50.960;6.220;2022-11-15T07:27:17;99871.19;;;16.21;58.57
50268;BME280;36153;50.960;6.220;2022-11-15T07:31:03;99869.28;;;16.27;58.30
50268;BME280;36153;50.960;6.220;2022-11-15T07:34:32;99881.59;;;16.25;58.06
50268;BME280;36153;50.960;6.220;2022-11-15T07:38:05;99876.44;;;16.21;58.03
50268;BME280;36153;50.960;6.220;2022-11-15T07:41:45;99885.03;;;16.27;57.75
50268;BME280;36153;50.960;6.220;2022-11-15T07:44:47;99876.44;;;16.21;57.45
50268;BME280;36153;50.960;6.220;2022-11-15T07:47:57;99879.97;;;16.19;57.59
50268;BME280;36153;50.960;6.220;2022-11-15T07:51:22;99881.72;;;16.18;57.14
50268;BME280;36153;50.960;6.220;2022-11-15T07:54:49;99890.41;;;16.22;56.58
50268;BME280;36153;50.960;6.220;2022-11-15T07:58:43;99890.34;;;16.25;56.14
50268;BME280;36153;50.960;6.220;2022-11-15T08:01:50;99898.88;;;16.35;55.03
50268;BME280;36153;50.960;6.220;2022-11-15T08:04:58;99891.00;;;16.35;55.10
50268;BME280;36153;50.960;6.220;2022-11-15T08:07:59;99892.81;;;16.33;55.11
50268;BME280;36153;50.960;6.220;2022-11-15T08:11:05;99888.19;;;16.44;54.43
50268;BME280;36153;50.960;6.220;2022-11-15T08:14:35;99886.00;;;16.23;54.42
50268;BME280;36153;50.960;6.220;2022-11-15T08:18:04;99879.19;;;16.14;53.64
50268;BME280;36153;50.960;6.220;2022-11-15T08:21:18;99870.06;;;16.32;52.99
50268;BME280;36153;50.960;6.220;2022-11-15T08:24:36;99869.28;;;16.27;52.91
50268;BME280;36153;50.960;6.220;2022-11-15T08:28:12;99870.50;;;16.12;52.88
50268;BME280;36153;50.960;6.220;2022-11-15T08:31:51;99860.72;;;16.20;52.27
50268;BME280;36153;50.960;6.220;2022-11-15T08:35:18;99865.69;;;16.31;51.79
50268;BME280;36153;50.960;6.220;2022-11-15T08:43:19;99869.53;;;16.16;51.07
50268;BME280;36153;50.960;6.220;2022-11-15T08:46:55;99866.63;;;16.30;50.90
50268;BME280;36153;50.960;6.220;2022-11-15T08:55:30;99860.13;;;16.45;50.42
50268;BME280;36153;50.960;6.220;2022-11-15T08:58:44;99848.44;;;16.58;50.14
50268;BME280;36153;50.960;6.220;2022-11-15T09:15:07;99833.44;;;16.62;49.86
50268;BME280;36153;50.960;6.220;2022-11-15T09:23:41;99813.69;;;16.83;49.26
50268;BME280;36153;50.960;6.220;2022-11-15T09:26:42;99811.78;;;16.89;49.97
50268;BME280;36153;50.960;6.220;2022-11-15T09:30:02;99799.91;;;16.73;49.93
50268;BME280;36153;50.960;6.220;2022-11-15T09:33:38;99796.44;;;17.07;49.77
50268;BME280;36153;50.960;6.220;2022-11-15T09:36:39;99784.50;;;16.94;49.49
50268;BME280;36153;50.960;6.220;2022-11-15T09:39:40;99782.84;;;16.89;49.19
50268;BME280;36153;50.960;6.220;2022-11-15T09:46:21;99787.13;;;16.94;47.97
50268;BME280;36153;50.960;6.220;2022-11-15T09:49:23;99774.13;;;16.89;46.92
50268;BME280;36153;50.960;6.220;2022-11-15T09:52:24;99777.94;;;17.10;46.94
50268;BME280;36153;50.960;6.220;2022-11-15T10:05:25;99768.38;;;17.70;44.79
50268;BME280;36153;50.960;6.220;2022-11-15T10:09:06;99773.63;;;17.70;45.08
50268;BME280;36153;50.960;6.220;2022-11-15T10:12:12;99766.22;;;17.53;44.11
50268;BME280;36153;50.960;6.220;2022-11-15T10:15:16;99770.06;;;17.71;43.62
50268;BME280;36153;50.960;6.220;2022-11-15T10:18:35;99758.69;;;17.71;42.16
50268;BME280;36153;50.960;6.220;2022-11-15T10:22:00;99763.97;;;17.71;42.12
50268;BME280;36153;50.960;6.220;2022-11-15T10:31:24;99744.38;;;17.80;39.91
50268;BME280;36153;50.960;6.220;2022-11-15T10:34:26;99743.00;;;17.98;39.53
50268;BME280;36153;50.960;6.220;2022-11-15T10:37:28;99733.47;;;18.20;39.32
50268;BME280;36153;50.960;6.220;2022-11-15T10:40:29;99730.78;;;18.23;38.93
50268;BME280;36153;50.960;6.220;2022-11-15T10:43:29;99730.56;;;18.30;39.38
50268;BME280;36153;50.960;6.220;2022-11-15T10:46:30;99717.09;;;18.39;39.28
50268;BME280;36153;50.960;6.220;2022-11-15T10:49:31;99716.47;;;18.57;37.63
50268;BME280;36153;50.960;6.220;2022-11-15T10:52:35;99706.94;;;18.79;37.47
50268;BME280;36153;50.960;6.220;2022-11-15T10:55:36;99710.31;;;19.09;37.05
50268;BME280;36153;50.960;6.220;2022-11-15T10:58:42;99713.63;;;19.14;35.96
50268;BME280;36153;50.960;6.220;2022-11-15T11:01:47;99708.81;;;19.25;37.13
50268;BME280;36153;50.960;6.220;2022-11-15T11:04:51;99702.97;;;19.17;36.15
50268;BME280;36153;50.960;6.220;2022-11-15T11:08:00;99699.94;;;19.52;36.22
50268;BME280;36153;50.960;6.220;2022-11-15T11:11:03;99704.53;;;19.69;36.96
50268;BME280;36153;50.960;6.220;2022-11-15T11:14:12;99699.97;;;19.74;35.97
50268;BME280;36153;50.960;6.220;2022-11-15T11:17:24;99690.72;;;19.62;36.02
50268;BME280;36153;50.960;6.220;2022-11-15T11:20:40;99679.50;;;19.79;36.49
50268;BME280;36153;50.960;6.220;2022-11-15T11:23:49;99668.06;;;19.78;36.05
50268;BME280;36153;50.960;6.220;2022-11-15T11:30:21;99668.69;;;19.63;36.94
50268;BME280;36153;50.960;6.220;2022-11-15T11:33:29;99665.41;;;19.56;36.01
50268;BME280;36153;50.960;6.220;2022-11-15T11:36:52;99648.59;;;19.83;36.22
50268;BME280;36153;50.960;6.220;2022-11-15T11:40:20;99632.53;;;19.87;36.39
50268;BME280;36153;50.960;6.220;2022-11-15T11:43:30;99621.31;;;19.82;36.22
50268;BME280;36153;50.960;6.220;2022-11-15T11:46:48;99620.44;;;19.37;36.47
50268;BME280;36153;50.960;6.220;2022-11-15T11:49:59;99624.72;;;19.16;36.31
50268;BME280;36153;50.960;6.220;2022-11-15T11:53:11;99614.03;;;19.21;37.51
50268;BME280;36153;50.960;6.220;2022-11-15T11:56:22;99610.25;;;19.50;37.37
50268;BME280;36153;50.960;6.220;2022-11-15T12:09:48;99589.00;;;19.53;38.38
50268;BME280;36153;50.960;6.220;2022-11-15T12:13:09;99578.66;;;19.91;38.87
50268;BME280;36153;50.960;6.220;2022-11-15T12:16:26;99569.28;;;19.84;38.35
50268;BME280;36153;50.960;6.220;2022-11-15T12:19:29;99558.41;;;19.70;38.75
50268;BME280;36153;50.960;6.220;2022-11-15T12:22:42;99555.31;;;19.82;39.18
50268;BME280;36153;50.960;6.220;2022-11-15T12:25:52;99539.19;;;20.09;38.75
50268;BME280;36153;50.960;6.220;2022-11-15T12:29:06;99540.03;;;20.09;38.70
50268;BME280;36153;50.960;6.220;2022-11-15T12:32:28;99543.66;;;20.27;38.11
50268;BME280;36153;50.960;6.220;2022-11-15T12:35:39;99538.66;;;20.21;38.71
50268;BME280;36153;50.960;6.220;2022-11-15T12:44:57;99524.84;;;20.15;38.77
50268;BME280;36153;50.960;6.220;2022-11-15T12:51:20;99527.34;;;19.76;39.62
50268;BME280;36153;50.960;6.220;2022-11-15T12:57:30;99503.47;;;19.57;40.38
50268;BME280;36153;50.960;6.220;2022-11-15T13:03:31;99496.75;;;19.50;40.87
50268;BME280;36153;50.960;6.220;2022-11-15T13:18:54;99457.03;;;19.53;42.33
50268;BME280;36153;50.960;6.220;2022-11-15T13:21:55;99447.91;;;19.60;41.77
50268;BME280;36153;50.960;6.220;2022-11-15T13:26:10;99444.88;;;19.70;41.99
50268;BME280;36153;50.960;6.220;2022-11-15T13:28:52;99435.09;;;19.72;42.64
50268;BME280;36153;50.960;6.220;2022-11-15T13:31:55;99432.63;;;19.89;41.71
50268;BME280;36153;50.960;6.220;2022-11-15T13:34:56;99420.47;;;19.85;41.86
50268;BME280;36153;50.960;6.220;2022-11-15T13:37:56;99418.50;;;19.90;42.03
50268;BME280;36153;50.960;6.220;2022-11-15T13:40:59;99416.25;;;19.81;42.51
50268;BME280;36153;50.960;6.220;2022-11-15T13:44:01;99407.56;;;19.77;42.36
50268;BME280;36153;50.960;6.220;2022-11-15T13:47:12;99407.13;;;19.68;42.81
50268;BME280;36153;50.960;6.220;2022-11-15T13:50:13;99402.38;;;19.55;43.40
50268;BME280;36153;50.960;6.220;2022-11-15T13:53:14;99398.41;;;19.66;43.03
50268;BME280;36153;50.960;6.220;2022-11-15T13:56:16;99406.34;;;19.45;43.45
50268;BME280;36153;50.960;6.220;2022-11-15T13:59:27;99395.75;;;19.24;43.07
50268;BME280;36153;50.960;6.220;2022-11-15T14:02:35;99390.56;;;19.23;42.74
50268;BME280;36153;50.960;6.220;2022-11-15T14:05:36;99381.00;;;19.41;42.27
50268;BME280;36153;50.960;6.220;2022-11-15T14:08:38;99383.09;;;19.33;42.67
50268;BME280;36153;50.960;6.220;2022-11-15T14:11:55;99370.91;;;19.30;42.72
50268;BME280;36153;50.960;6.220;2022-11-15T14:14:58;99367.56;;;19.26;42.34
50268;BME280;36153;50.960;6.220;2022-11-15T14:17:59;99360.47;;;19.27;42.10
50268;BME280;36153;50.960;6.220;2022-11-15T14:21:07;99354.28;;;19.28;42.47
50268;BME280;36153;50.960;6.220;2022-11-15T14:24:18;99350.59;;;19.53;42.18
50268;BME280;36153;50.960;6.220;2022-11-15T14:30:21;99349.88;;;19.28;42.76
50268;BME280;36153;50.960;6.220;2022-11-15T14:33:27;99344.72;;;19.46;42.64
50268;BME280;36153;50.960;6.220;2022-11-15T14:36:29;99343.53;;;19.12;43.47
50268;BME280;36153;50.960;6.220;2022-11-15T14:39:29;99345.03;;;19.18;43.63
50268;BME280;36153;50.960;6.220;2022-11-15T14:42:30;99337.59;;;19.07;44.32
50268;BME280;36153;50.960;6.220;2022-11-15T14:45:30;99328.63;;;19.11;44.34
50268;BME280;36153;50.960;6.220;2022-11-15T14:48:31;99333.91;;;19.11;44.26
50268;BME280;36153;50.960;6.220;2022-11-15T14:51:31;99329.94;;;19.01;44.85
50268;BME280;36153;50.960;6.220;2022-11-15T14:54:33;99320.84;;;18.87;44.96
50268;BME280;36153;50.960;6.220;2022-11-15T14:57:33;99322.91;;;18.79;45.15
50268;BME280;36153;50.960;6.220;2022-11-15T15:00:39;99321.19;;;18.78;45.28
50268;BME280;36153;50.960;6.220;2022-11-15T15:03:39;99316.41;;;18.66;46.22
50268;BME280;36153;50.960;6.220;2022-11-15T15:06:40;99301.09;;;18.53;46.66
50268;BME280;36153;50.960;6.220;2022-11-15T15:09:41;99303.97;;;18.47;47.12
50268;BME280;36153;50.960;6.220;2022-11-15T15:12:42;99293.81;;;18.38;47.59
50268;BME280;36153;50.960;6.220;2022-11-15T15:15:43;99283.69;;;18.27;47.42
50268;BME280;36153;50.960;6.220;2022-11-15T15:18:44;99282.50;;;18.36;47.59
50268;BME280;36153;50.960;6.220;2022-11-15T15:21:45;99280.16;;;18.28;47.59
50268;BME280;36153;50.960;6.220;2022-11-15T15:24:46;99273.59;;;18.16;48.29
50268;BME280;36153;50.960;6.220;2022-11-15T15:27:46;99273.69;;;18.13;48.42
50268;BME280;36153;50.960;6.220;2022-11-15T15:30:46;99265.94;;;18.10;48.52
50268;BME280;36153;50.960;6.220;2022-11-15T15:33:47;99261.06;;;17.99;48.37
50268;BME280;36153;50.960;6.220;2022-11-15T15:36:47;99247.19;;;17.96;48.48
50268;BME280;36153;50.960;6.220;2022-11-15T15:39:48;99239.16;;;17.99;48.48
50268;BME280;36153;50.960;6.220;2022-11-15T15:42:49;99241.41;;;17.86;48.49
50268;BME280;36153;50.960;6.220;2022-11-15T15:45:50;99235.94;;;17.90;48.37
50268;BME280;36153;50.960;6.220;2022-11-15T15:48:50;99231.72;;;17.86;48.31
50268;BME280;36153;50.960;6.220;2022-11-15T15:51:50;99231.91;;;17.82;48.20
50268;BME280;36153;50.960;6.220;2022-11-15T15:54:51;99233.06;;;17.98;47.72
50268;BME280;36153;50.960;6.220;2022-11-15T15:57:51;99230.69;;;17.90;48.00
50268;BME280;36153;50.960;6.220;2022-11-15T16:00:53;99235.63;;;18.00;47.63
50268;BME280;36153;50.960;6.220;2022-11-15T16:03:53;99224.47;;;17.93;47.81
50268;BME280;36153;50.960;6.220;2022-11-15T16:06:58;99225.41;;;17.90;48.24
50268;BME280;36153;50.960;6.220;2022-11-15T16:09:59;99226.28;;;17.91;48.07
50268;BME280;36153;50.960;6.220;2022-11-15T16:13:02;99220.22;;;17.89;48.33
50268;BME280;36153;50.960;6.220;2022-11-15T16:16:04;99222.47;;;17.76;48.74
50268;BME280;36153;50.960;6.220;2022-11-15T16:19:08;99226.06;;;17.73;49.30
50268;BME280;36153;50.960;6.220;2022-11-15T16:22:10;99218.13;;;17.75;49.57
50268;BME280;36153;50.960;6.220;2022-11-15T16:25:10;99227.53;;;17.81;49.35
50268;BME280;36153;50.960;6.220;2022-11-15T16:28:17;99227.88;;;17.71;49.85
50268;BME280;36153;50.960;6.220;2022-11-15T16:31:18;99236.19;;;17.84;49.97
50268;BME280;36153;50.960;6.220;2022-11-15T16:34:21;99232.31;;;17.95;49.37
50268;BME280;36153;50.960;6.220;2022-11-15T16:37:22;99231.84;;;17.83;49.84
50268;BME280;36153;50.960;6.220;2022-11-15T16:40:27;99239.78;;;18.05;49.88
50268;BME280;36153;50.960;6.220;2022-11-15T16:43:28;99232.03;;;18.01;50.75
50268;BME280;36153;50.960;6.220;2022-11-15T16:46:28;99238.59;;;17.67;52.35
50268;BME280;36153;50.960;6.220;2022-11-15T16:49:29;99234.44;;;17.61;53.21
50268;BME280;36153;50.960;6.220;2022-11-15T16:52:29;99232.88;;;17.55;53.31
50268;BME280;36153;50.960;6.220;2022-11-15T16:55:29;99235.13;;;17.43;54.52
50268;BME280;36153;50.960;6.220;2022-11-15T16:58:30;99238.47;;;17.22;54.99
50268;BME280;36153;50.960;6.220;2022-11-15T17:01:34;99244.34;;;17.05;56.49
50268;BME280;36153;50.960;6.220;2022-11-15T17:04:34;99234.25;;;16.93;57.29
50268;BME280;36153;50.960;6.220;2022-11-15T17:07:35;99226.31;;;16.95;57.67
50268;BME280;36153;50.960;6.220;2022-11-15T17:10:38;99226.38;;;16.93;57.97
50268;BME280;36153;50.960;6.220;2022-11-15T17:13:40;99235.28;;;16.87;58.49
50268;BME280;36153;50.960;6.220;2022-11-15T17:16:41;99231.47;;;16.71;59.03
50268;BME280;36153;50.960;6.220;2022-11-15T17:19:43;99227.34;;;16.64;59.36
50268;BME280;36153;50.960;6.220;2022-11-15T17:22:43;99224.50;;;16.70;59.40
50268;BME280;36153;50.960;6.220;2022-11-15T17:25:44;99224.66;;;16.65;59.57
50268;BME280;36153;50.960;6.220;2022-11-15T17:28:44;99218.38;;;16.69;59.61
50268;BME280;36153;50.960;6.220;2022-11-15T17:31:45;99220.16;;;16.69;59.57
50268;BME280;36153;50.960;6.220;2022-11-15T17:34:45;99215.09;;;16.63;59.77
50268;BME280;36153;50.960;6.220;2022-11-15T17:37:45;99211.94;;;16.53;60.33
50268;BME280;36153;50.960;6.220;2022-11-15T17:40:47;99208.56;;;16.49;60.55
50268;BME280;36153;50.960;6.220;2022-11-15T17:43:48;99201.84;;;16.41;60.91
50268;BME280;36153;50.960;6.220;2022-11-15T17:46:48;99206.06;;;16.45;60.73
50268;BME280;36153;50.960;6.220;2022-11-15T17:49:49;99202.59;;;16.44;60.76
50268;BME280;36153;50.960;6.220;2022-11-15T17:52:49;99199.16;;;16.42;60.89
50268;BME280;36153;50.960;6.220;2022-11-15T17:55:50;99202.78;;;16.38;61.22
50268;BME280;36153;50.960;6.220;2022-11-15T17:58:55;99200.78;;;16.46;60.78
50268;BME280;36153;50.960;6.220;2022-11-15T18:01:56;99186.06;;;16.41;60.95
50268;BME280;36153;50.960;6.220;2022-11-15T18:04:56;99184.63;;;16.32;61.45
50268;BME280;36153;50.960;6.220;2022-11-15T18:07:56;99183.16;;;16.23;61.55
50268;BME280;36153;50.960;6.220;2022-11-15T18:14:06;99187.16;;;16.35;61.43
50268;BME280;36153;50.960;6.220;2022-11-15T18:17:07;99182.38;;;16.48;61.30
50268;BME280;36153;50.960;6.220;2022-11-15T18:20:08;99186.03;;;16.42;61.48
50268;BME280;36153;50.960;6.220;2022-11-15T18:23:09;99178.19;;;16.41;61.23
50268;BME280;36153;50.960;6.220;2022-11-15T18:26:11;99182.56;;;16.42;61.41
50268;BME280;36153;50.960;6.220;2022-11-15T18:29:12;99176.59;;;16.36;61.19
50268;BME280;36153;50.960;6.220;2022-11-15T18:32:13;99169.63;;;16.35;61.44